Time;durP1;ratioP1;P1;durP2;ratioP2;P2;SDS_P1;SDS_P2;PMS_P1;PMS_P2;Temp;Humidity;BMP_temperature;BMP_pressure;BME280_temperature;BME280_humidity;BME280_pressure;Samples;Min_cycle;Max_cycle;Signal;HPM_P1;HPM_P2
2023/08/25 00:02:25;;;;;;;5.43;4.93;;;;;;;;;;5040902;28;20263;-63
2023/08/25 00:04:53;;;;;;;5.38;4.90;;;;;;;;;;5041224;28;20232;-63
2023/08/25 00:07:20;;;;;;;5.25;4.80;;;;;;;;;;5040934;28;20221;-63
2023/08/25 00:09:48;;;;;;;5.38;4.97;;;;;;;;;;5040506;28;20237;-63
2023/08/25 00:12:17;;;;;;;5.53;5.13;;;;;;;;;;5040811;28;20213;-64
2023/08/25 00:14:44;;;;;;;5.57;5.07;;;;;;;;;;5040773;28;20206;-63
2023/08/25 00:17:12;;;;;;;5.50;5.10;;;;;;;;;;5040800;28;20206;-64
2023/08/25 00:19:39;;;;;;;5.18;4.70;;;;;;;;;;5040620;28;20656;-63
2023/08/25 00:22:08;;;;;;;5.18;4.78;;;;;;;;;;5040723;28;20206;-63
2023/08/25 00:24:35;;;;;;;5.30;4.90;;;;;;;;;;5040810;28;20206;-63
2023/08/25 00:27:03;;;;;;;5.38;4.95;;;;;;;;;;5040528;28;20214;-63
2023/08/25 00:29:32;;;;;;;5.32;4.93;;;;;;;;;;5040661;28;20218;-63
2023/08/25 00:31:59;;;;;;;5.03;4.55;;;;;;;;;;5040211;28;20221;-63
2023/08/25 00:34:27;;;;;;;4.80;4.50;;;;;;;;;;5040543;28;20224;-63
2023/08/25 00:36:55;;;;;;;5.07;4.65;;;;;;;;;;5040450;28;20209;-63
2023/08/25 00:39:22;;;;;;;5.25;4.82;;;;;;;;;;5040570;28;20206;-63
2023/08/25 00:41:50;;;;;;;6.03;5.18;;;;;;;;;;5040305;28;20310;-64
2023/08/25 00:44:17;;;;;;;5.00;4.60;;;;;;;;;;5040033;28;20205;-63
2023/08/25 00:46:46;;;;;;;5.20;4.80;;;;;;;;;;5040030;28;20205;-64
2023/08/25 00:49:14;;;;;;;5.03;4.63;;;;;;;;;;5040094;28;20206;-64
2023/08/25 00:51:41;;;;;;;5.20;4.50;;;;;;;;;;5039797;28;20205;-63
2023/08/25 00:54:09;;;;;;;4.97;4.57;;;;;;;;;;5040039;28;20206;-63
2023/08/25 00:56:37;;;;;;;4.68;4.38;;;;;;;;;;5040299;28;20213;-64
2023/08/25 00:59:05;;;;;;;4.90;4.50;;;;;;;;;;5040181;28;20209;-63
2023/08/25 01:01:33;;;;;;;5.10;4.72;;;;;;;;;;5039842;28;20197;-63
2023/08/25 01:04:03;;;;;;;5.15;4.78;;;;;;;;;;5039585;28;20216;-63
2023/08/25 01:06:30;;;;;;;5.00;4.63;;;;;;;;;;5040033;28;20669;-63
2023/08/25 01:08:58;;;;;;;5.47;4.97;;;;;;;;;;5039595;28;20625;-63
2023/08/25 01:11:35;;;;;;;5.07;4.68;;;;;;;;;;5039554;28;20327;-63
2023/08/25 01:14:04;;;;;;;5.05;4.65;;;;;;;;;;5039800;28;20566;-63
2023/08/25 01:16:35;;;;;;;5.10;4.70;;;;;;;;;;5039937;28;20206;-63
2023/08/25 01:19:06;;;;;;;4.95;4.65;;;;;;;;;;5039303;28;20216;-63
2023/08/25 01:21:36;;;;;;;8.25;5.05;;;;;;;;;;5039726;28;20202;-63
2023/08/25 01:24:10;;;;;;;5.45;4.75;;;;;;;;;;5039453;28;20205;-63
2023/08/25 01:26:40;;;;;;;5.25;4.85;;;;;;;;;;5039534;28;20204;-63
2023/08/25 01:29:07;;;;;;;5.30;4.90;;;;;;;;;;5039466;28;20202;-63
2023/08/25 01:31:35;;;;;;;5.03;4.55;;;;;;;;;;5039280;28;20284;-63
2023/08/25 01:34:03;;;;;;;5.65;5.18;;;;;;;;;;5039273;28;20209;-63
2023/08/25 01:36:35;;;;;;;5.22;4.57;;;;;;;;;;5039618;28;20482;-63
2023/08/25 01:39:06;;;;;;;5.18;4.68;;;;;;;;;;5039248;28;20205;-63
2023/08/25 01:41:41;;;;;;;5.10;4.70;;;;;;;;;;5039151;28;20280;-63
2023/08/25 01:44:11;;;;;;;5.32;4.93;;;;;;;;;;5039139;28;20205;-64
2023/08/25 01:46:39;;;;;;;5.25;4.85;;;;;;;;;;5039389;28;20259;-63
2023/08/25 01:49:07;;;;;;;5.10;4.80;;;;;;;;;;5038403;28;20275;-63
2023/08/25 01:51:35;;;;;;;4.90;4.50;;;;;;;;;;5038844;28;20225;-63
2023/08/25 01:54:03;;;;;;;5.22;4.72;;;;;;;;;;5039345;28;20565;-63
2023/08/25 01:56:31;;;;;;;5.07;4.68;;;;;;;;;;5038948;28;20212;-63
2023/08/25 01:58:58;;;;;;;5.03;4.63;;;;;;;;;;5039010;28;20213;-63
2023/08/25 02:01:30;;;;;;;5.30;4.90;;;;;;;;;;5039005;28;20291;-63
2023/08/25 02:03:58;;;;;;;4.95;4.55;;;;;;;;;;5038640;28;20592;-63
2023/08/25 02:06:25;;;;;;;4.80;4.40;;;;;;;;;;5038730;28;20217;-63
2023/08/25 02:08:53;;;;;;;5.10;4.70;;;;;;;;;;5038410;28;20256;-63
2023/08/25 02:11:21;;;;;;;4.95;4.55;;;;;;;;;;5037773;28;20247;-63
2023/08/25 02:13:49;;;;;;;5.15;4.68;;;;;;;;;;5038320;28;20238;-63
2023/08/25 02:16:16;;;;;;;5.30;4.90;;;;;;;;;;5038528;28;20241;-63
2023/08/25 02:18:45;;;;;;;4.93;4.53;;;;;;;;;;5038525;28;20268;-63
2023/08/25 02:21:13;;;;;;;5.05;4.57;;;;;;;;;;5038606;28;20202;-63
2023/08/25 02:23:41;;;;;;;4.97;4.60;;;;;;;;;;5038038;28;20479;-63
2023/08/25 02:26:08;;;;;;;4.78;4.47;;;;;;;;;;5038358;28;20287;-63
2023/08/25 02:28:36;;;;;;;5.05;4.72;;;;;;;;;;5038034;28;20263;-63
2023/08/25 02:31:03;;;;;;;4.72;4.30;;;;;;;;;;5038350;28;20229;-63
2023/08/25 02:33:31;;;;;;;4.93;4.55;;;;;;;;;;5038045;28;20268;-63
2023/08/25 02:36:00;;;;;;;7.15;4.70;;;;;;;;;;5038184;28;20275;-63
2023/08/25 02:38:28;;;;;;;5.00;4.60;;;;;;;;;;5038143;28;20531;-63
2023/08/25 02:40:55;;;;;;;4.75;4.15;;;;;;;;;;5037650;28;20696;-63
2023/08/25 02:43:23;;;;;;;4.80;4.40;;;;;;;;;;5037667;28;20232;-63
2023/08/25 02:45:50;;;;;;;4.90;4.45;;;;;;;;;;5037821;28;20531;-63
2023/08/25 02:48:18;;;;;;;4.70;4.30;;;;;;;;;;5037723;28;20206;-64
2023/08/25 02:50:46;;;;;;;4.50;4.20;;;;;;;;;;5037950;28;20233;-63
2023/08/25 02:53:15;;;;;;;4.32;3.92;;;;;;;;;;5038191;28;20241;-63
2023/08/25 02:55:42;;;;;;;4.65;4.07;;;;;;;;;;5036968;28;20217;-63
2023/08/25 02:58:10;;;;;;;4.60;4.20;;;;;;;;;;5037430;28;20285;-63
2023/08/25 03:00:38;;;;;;;4.65;4.25;;;;;;;;;;5037875;28;20228;-63
2023/08/25 03:03:06;;;;;;;4.10;3.80;;;;;;;;;;5037918;28;20268;-63
2023/08/25 03:05:33;;;;;;;4.50;4.15;;;;;;;;;;5037253;28;20206;-64
2023/08/25 03:08:01;;;;;;;4.50;4.18;;;;;;;;;;5037588;28;20205;-63
2023/08/25 03:10:30;;;;;;;4.40;4.05;;;;;;;;;;5037454;28;20249;-63
2023/08/25 03:12:57;;;;;;;4.28;3.95;;;;;;;;;;5037461;28;20205;-63
2023/08/25 03:15:25;;;;;;;4.20;3.88;;;;;;;;;;5037503;28;20202;-63
2023/08/25 03:17:53;;;;;;;4.28;3.90;;;;;;;;;;5037700;28;20231;-63
2023/08/25 03:20:20;;;;;;;5.10;4.25;;;;;;;;;;5037522;28;20198;-63
2023/08/25 03:22:48;;;;;;;4.45;3.90;;;;;;;;;;5037268;28;20281;-63
2023/08/25 03:25:15;;;;;;;4.32;4.03;;;;;;;;;;5037643;28;20484;-63
2023/08/25 03:27:44;;;;;;;4.00;3.70;;;;;;;;;;5037424;28;20639;-63
2023/08/25 03:30:13;;;;;;;5.15;4.00;;;;;;;;;;5037299;28;20231;-63
2023/08/25 03:32:40;;;;;;;4.07;3.75;;;;;;;;;;5037102;28;20600;-63
2023/08/25 03:35:09;;;;;;;3.90;3.60;;;;;;;;;;5037077;28;20237;-63
2023/08/25 03:37:36;;;;;;;3.55;3.25;;;;;;;;;;5037234;28;20223;-63
2023/08/25 03:40:04;;;;;;;3.83;3.50;;;;;;;;;;5037230;28;20220;-63
2023/08/25 03:42:32;;;;;;;3.92;3.63;;;;;;;;;;5037201;28;20606;-63
2023/08/25 03:45:01;;;;;;;4.00;3.65;;;;;;;;;;5036910;28;20232;-63
2023/08/25 03:47:29;;;;;;;3.83;3.53;;;;;;;;;;5036760;28;20206;-63
2023/08/25 03:49:56;;;;;;;4.15;3.72;;;;;;;;;;5036745;28;20202;-63
2023/08/25 03:52:24;;;;;;;4.13;3.72;;;;;;;;;;5036388;28;20229;-64
2023/08/25 03:54:51;;;;;;;3.40;3.10;;;;;;;;;;5036930;28;20212;-63
2023/08/25 03:57:19;;;;;;;3.50;3.30;;;;;;;;;;5036702;28;20287;-63
2023/08/25 03:59:46;;;;;;;3.63;3.42;;;;;;;;;;5036404;28;20220;-63
2023/08/25 04:02:15;;;;;;;3.38;3.17;;;;;;;;;;5036659;28;20586;-63
2023/08/25 04:04:42;;;;;;;3.60;3.30;;;;;;;;;;5036425;28;20218;-63
2023/08/25 04:07:10;;;;;;;3.17;2.95;;;;;;;;;;5036581;28;20214;-63
2023/08/25 04:09:37;;;;;;;3.60;3.30;;;;;;;;;;5035981;28;20246;-63
2023/08/25 04:12:05;;;;;;;3.67;3.38;;;;;;;;;;5037302;28;20229;-63
2023/08/25 04:14:33;;;;;;;3.55;3.25;;;;;;;;;;5040124;28;20232;-63
2023/08/25 04:17:01;;;;;;;3.55;3.25;;;;;;;;;;5031989;28;20238;-63
2023/08/25 04:19:29;;;;;;;3.75;3.10;;;;;;;;;;5020233;28;20212;-63
2023/08/25 04:21:58;;;;;;;3.83;3.50;;;;;;;;;;5020324;28;20209;-63
2023/08/25 04:24:26;;;;;;;3.70;3.40;;;;;;;;;;5019127;28;20583;-63
2023/08/25 04:26:54;;;;;;;3.55;3.25;;;;;;;;;;5020257;28;20207;-63
2023/08/25 04:29:21;;;;;;;3.20;3.00;;;;;;;;;;5019609;28;20613;-63
2023/08/25 04:31:48;;;;;;;3.50;3.20;;;;;;;;;;5019862;28;20240;-63
2023/08/25 04:34:16;;;;;;;3.20;3.00;;;;;;;;;;5019764;28;20221;-63
2023/08/25 04:36:45;;;;;;;3.90;3.60;;;;;;;;;;5019615;28;20317;-63
2023/08/25 04:39:14;;;;;;;3.20;3.00;;;;;;;;;;5019533;28;20229;-63
2023/08/25 04:41:41;;;;;;;3.45;2.95;;;;;;;;;;5019176;28;20202;-63
2023/08/25 04:44:09;;;;;;;3.17;2.97;;;;;;;;;;5019403;28;20610;-64
2023/08/25 04:46:36;;;;;;;3.40;3.10;;;;;;;;;;5019428;28;20214;-63
2023/08/25 04:49:03;;;;;;;3.15;2.95;;;;;;;;;;5018813;28;20210;-63
2023/08/25 04:51:31;;;;;;;3.40;3.10;;;;;;;;;;5018110;28;20226;-63
2023/08/25 04:54:00;;;;;;;3.35;3.05;;;;;;;;;;5018541;28;20210;-63
2023/08/25 04:56:27;;;;;;;3.38;3.17;;;;;;;;;;5018041;28;20210;-63
2023/08/25 04:58:55;;;;;;;2.97;2.78;;;;;;;;;;5018809;28;20216;-63
2023/08/25 05:01:22;;;;;;;3.10;2.80;;;;;;;;;;5017946;28;20626;-63
2023/08/25 05:03:50;;;;;;;3.60;3.30;;;;;;;;;;5016836;28;20241;-63
2023/08/25 05:06:17;;;;;;;3.05;2.80;;;;;;;;;;5017807;28;20305;-63
2023/08/25 05:08:44;;;;;;;3.80;2.92;;;;;;;;;;5016373;28;20214;-63
2023/08/25 05:11:13;;;;;;;3.15;2.85;;;;;;;;;;5000589;28;20247;-63
2023/08/25 05:13:41;;;;;;;3.17;2.92;;;;;;;;;;4996722;28;20274;-63
2023/08/25 05:16:09;;;;;;;3.45;2.83;;;;;;;;;;4996354;28;20231;-63
2023/08/25 05:18:36;;;;;;;3.38;3.08;;;;;;;;;;4997269;28;20555;-63
2023/08/25 05:21:04;;;;;;;3.00;2.75;;;;;;;;;;4996492;28;20239;-63
2023/08/25 05:23:32;;;;;;;3.00;2.72;;;;;;;;;;4996150;28;20207;-63
2023/08/25 05:25:59;;;;;;;2.92;2.72;;;;;;;;;;4996505;28;20218;-63
2023/08/25 05:28:28;;;;;;;2.90;2.67;;;;;;;;;;4997122;28;20310;-63
2023/08/25 05:30:55;;;;;;;2.88;2.67;;;;;;;;;;4996793;28;20219;-63
2023/08/25 05:33:23;;;;;;;3.38;2.50;;;;;;;;;;4996421;28;20306;-63
2023/08/25 05:35:51;;;;;;;3.10;2.85;;;;;;;;;;4996965;28;20217;-63
2023/08/25 05:38:18;;;;;;;3.22;2.95;;;;;;;;;;4997566;28;20207;-63
2023/08/25 05:40:45;;;;;;;2.78;2.58;;;;;;;;;;4995887;28;20353;-63
2023/08/25 05:43:13;;;;;;;3.25;2.63;;;;;;;;;;4996557;28;20309;-63
2023/08/25 05:45:42;;;;;;;2.70;2.50;;;;;;;;;;4995730;28;20210;-63
2023/08/25 05:48:10;;;;;;;2.92;2.65;;;;;;;;;;4995959;28;20203;-63
2023/08/25 05:50:38;;;;;;;3.13;2.53;;;;;;;;;;4996530;28;20203;-63
2023/08/25 05:53:05;;;;;;;3.25;2.67;;;;;;;;;;4995662;28;20213;-63
2023/08/25 05:55:33;;;;;;;3.25;2.70;;;;;;;;;;4995877;28;20217;-63
2023/08/25 05:58:00;;;;;;;2.80;2.60;;;;;;;;;;4995614;28;20217;-63
2023/08/25 06:00:28;;;;;;;2.95;2.47;;;;;;;;;;4996290;28;20199;-63
2023/08/25 06:02:56;;;;;;;2.80;2.60;;;;;;;;;;4996513;28;20252;-63
2023/08/25 06:05:24;;;;;;;3.40;2.85;;;;;;;;;;4997139;28;20322;-64
2023/08/25 06:07:51;;;;;;;3.42;2.70;;;;;;;;;;4996419;28;20207;-63
2023/08/25 06:10:19;;;;;;;2.58;2.38;;;;;;;;;;5004395;28;20264;-63
2023/08/25 06:12:46;;;;;;;2.53;2.33;;;;;;;;;;5015966;28;20222;-63
2023/08/25 06:15:14;;;;;;;3.35;2.38;;;;;;;;;;5015770;28;20297;-63
2023/08/25 06:17:43;;;;;;;2.53;2.33;;;;;;;;;;5016171;28;20217;-63
2023/08/25 06:20:12;;;;;;;2.55;2.35;;;;;;;;;;5016121;28;20206;-63
2023/08/25 06:22:40;;;;;;;2.75;2.50;;;;;;;;;;5016596;28;20477;-63
2023/08/25 06:25:08;;;;;;;2.53;2.33;;;;;;;;;;5016579;28;20316;-63
2023/08/25 06:27:36;;;;;;;3.00;2.53;;;;;;;;;;5016138;28;20462;-63
2023/08/25 06:30:03;;;;;;;3.45;2.80;;;;;;;;;;5016418;28;20221;-63
2023/08/25 06:32:31;;;;;;;3.15;2.30;;;;;;;;;;5015616;28;20353;-63
2023/08/25 06:34:59;;;;;;;2.55;2.25;;;;;;;;;;5016280;28;20617;-64
2023/08/25 06:37:27;;;;;;;3.22;2.50;;;;;;;;;;5017160;28;20501;-63
2023/08/25 06:39:55;;;;;;;3.67;2.58;;;;;;;;;;5016048;28;20206;-63
2023/08/25 06:42:22;;;;;;;2.67;2.42;;;;;;;;;;5015889;28;20204;-63
2023/08/25 06:44:50;;;;;;;3.17;2.70;;;;;;;;;;5015989;28;20269;-63
2023/08/25 06:47:17;;;;;;;2.60;2.40;;;;;;;;;;5016212;28;20208;-63
2023/08/25 06:49:45;;;;;;;2.78;2.30;;;;;;;;;;5015946;28;20269;-63
2023/08/25 06:52:12;;;;;;;2.92;2.60;;;;;;;;;;5015975;28;20645;-63
2023/08/25 06:54:41;;;;;;;3.00;2.45;;;;;;;;;;5015445;28;20730;-63
2023/08/25 06:57:08;;;;;;;2.50;2.30;;;;;;;;;;5014846;28;20296;-63
2023/08/25 06:59:36;;;;;;;4.78;2.70;;;;;;;;;;5015202;28;20213;-63
2023/08/25 07:02:03;;;;;;;2.50;2.30;;;;;;;;;;5015083;28;20313;-63
2023/08/25 07:04:31;;;;;;;2.60;2.40;;;;;;;;;;5015369;28;20504;-63
2023/08/25 07:06:58;;;;;;;2.83;2.63;;;;;;;;;;5014895;28;20209;-63
2023/08/25 07:09:26;;;;;;;4.55;2.47;;;;;;;;;;5015287;28;20198;-63
2023/08/25 07:11:55;;;;;;;3.25;2.30;;;;;;;;;;5014814;28;20233;-63
2023/08/25 07:14:22;;;;;;;2.30;2.10;;;;;;;;;;5016000;28;20569;-63
2023/08/25 07:16:50;;;;;;;2.65;2.30;;;;;;;;;;5015480;28;20289;-63
2023/08/25 07:19:17;;;;;;;2.65;2.17;;;;;;;;;;5015329;28;20291;-63
2023/08/25 07:21:45;;;;;;;2.50;2.20;;;;;;;;;;5016151;28;20206;-63
2023/08/25 07:24:12;;;;;;;2.78;2.45;;;;;;;;;;5015176;28;20272;-63
2023/08/25 07:26:39;;;;;;;2.85;2.60;;;;;;;;;;5016070;28;20240;-63
2023/08/25 07:29:08;;;;;;;2.88;2.67;;;;;;;;;;5000125;28;20266;-63
2023/08/25 07:31:36;;;;;;;3.72;2.35;;;;;;;;;;4996237;28;20326;-63
2023/08/25 07:34:03;;;;;;;3.17;2.63;;;;;;;;;;4995237;28;20609;-63
2023/08/25 07:36:31;;;;;;;2.58;2.38;;;;;;;;;;4995551;28;20540;-63
2023/08/25 07:38:58;;;;;;;3.00;2.75;;;;;;;;;;4995656;28;20202;-63
2023/08/25 07:41:26;;;;;;;3.28;2.97;;;;;;;;;;4995779;28;20516;-63
2023/08/25 07:43:53;;;;;;;3.47;3.17;;;;;;;;;;4995885;28;20203;-63
2023/08/25 07:46:22;;;;;;;3.20;2.90;;;;;;;;;;4994831;28;20666;-63
2023/08/25 07:48:50;;;;;;;3.10;2.80;;;;;;;;;;4999176;28;20614;-63
2023/08/25 07:51:17;;;;;;;2.95;2.65;;;;;;;;;;4999014;28;20211;-64
2023/08/25 07:53:45;;;;;;;3.78;3.10;;;;;;;;;;4999127;28;20218;-63
2023/08/25 07:56:13;;;;;;;3.92;3.00;;;;;;;;;;4999221;28;20207;-63
2023/08/25 07:58:40;;;;;;;3.17;2.90;;;;;;;;;;4999604;28;20211;-63
2023/08/25 08:01:09;;;;;;;3.15;2.85;;;;;;;;;;4998978;28;20203;-63
2023/08/25 08:03:38;;;;;;;3.13;2.78;;;;;;;;;;4999622;28;20204;-64
2023/08/25 08:06:06;;;;;;;3.30;3.00;;;;;;;;;;4999321;28;20514;-63
2023/08/25 08:08:33;;;;;;;4.35;3.30;;;;;;;;;;4998811;28;20210;-63
2023/08/25 08:11:00;;;;;;;3.47;3.17;;;;;;;;;;5011912;28;20268;-63
2023/08/25 08:13:28;;;;;;;3.47;3.17;;;;;;;;;;5019035;28;20322;-62
2023/08/25 08:15:56;;;;;;;4.22;3.22;;;;;;;;;;5018993;28;20538;-64
2023/08/25 08:18:23;;;;;;;3.45;3.05;;;;;;;;;;5019089;28;20301;-63
2023/08/25 08:20:53;;;;;;;3.65;3.35;;;;;;;;;;5019604;28;20309;-63
2023/08/25 08:23:21;;;;;;;3.35;3.13;;;;;;;;;;5019483;28;20203;-63
2023/08/25 08:25:48;;;;;;;3.55;3.25;;;;;;;;;;5019298;28;20290;-63
2023/08/25 08:28:15;;;;;;;3.50;3.20;;;;;;;;;;5018812;28;20587;-63
2023/08/25 08:30:44;;;;;;;3.53;3.22;;;;;;;;;;5018711;28;20680;-63
2023/08/25 08:33:11;;;;;;;3.70;3.40;;;;;;;;;;5018257;28;20316;-63
2023/08/25 08:35:40;;;;;;;3.67;3.38;;;;;;;;;;5018315;28;20211;-63
2023/08/25 08:38:08;;;;;;;4.25;3.92;;;;;;;;;;5018843;28;20210;-63
2023/08/25 08:40:36;;;;;;;3.60;3.30;;;;;;;;;;5017861;28;20206;-63
2023/08/25 08:43:04;;;;;;;3.97;3.67;;;;;;;;;;5018371;28;20292;-63
2023/08/25 08:45:35;;;;;;;4.70;3.08;;;;;;;;;;5019185;28;20544;-63
2023/08/25 08:48:04;;;;;;;4.63;3.78;;;;;;;;;;5017464;28;20213;-63
2023/08/25 08:50:31;;;;;;;3.60;3.30;;;;;;;;;;5017702;28;20207;-63
2023/08/25 08:52:59;;;;;;;4.35;3.33;;;;;;;;;;5018072;28;20225;-63
2023/08/25 08:55:28;;;;;;;3.58;3.28;;;;;;;;;;5017969;28;20236;-63
2023/08/25 08:57:56;;;;;;;4.05;3.70;;;;;;;;;;5017970;28;20237;-63
2023/08/25 09:00:24;;;;;;;3.35;3.05;;;;;;;;;;5018462;28;20289;-63
2023/08/25 09:02:53;;;;;;;3.83;3.50;;;;;;;;;;5017731;28;20209;-63
2023/08/25 09:05:22;;;;;;;3.55;3.25;;;;;;;;;;5018196;28;20210;-63
2023/08/25 09:07:52;;;;;;;3.40;3.10;;;;;;;;;;5018231;28;20206;-63
2023/08/25 09:10:20;;;;;;;3.60;3.30;;;;;;;;;;5009285;28;20234;-63
2023/08/25 09:12:49;;;;;;;3.60;3.30;;;;;;;;;;4997983;28;20523;-64
2023/08/25 09:15:25;;;;;;;3.53;3.22;;;;;;;;;;4998403;28;20290;-63
2023/08/25 09:17:54;;;;;;;3.75;3.45;;;;;;;;;;4997875;28;20622;-63
2023/08/25 09:20:22;;;;;;;4.47;3.55;;;;;;;;;;4997281;28;20298;-63
2023/08/25 09:22:55;;;;;;;3.70;3.22;;;;;;;;;;4997281;28;20213;-63
2023/08/25 09:25:23;;;;;;;3.97;3.67;;;;;;;;;;4997007;28;20210;-63
2023/08/25 09:27:57;;;;;;;3.22;2.92;;;;;;;;;;4997166;28;20501;-63
2023/08/25 09:30:33;;;;;;;3.65;3.35;;;;;;;;;;4996698;28;20207;-64
2023/08/25 09:33:04;;;;;;;3.55;3.20;;;;;;;;;;4997084;28;20237;-63
2023/08/25 09:35:31;;;;;;;4.38;3.30;;;;;;;;;;4996508;28;20211;-64
2023/08/25 09:37:59;;;;;;;3.22;3.00;;;;;;;;;;4994979;28;20482;-63
2023/08/25 09:40:27;;;;;;;3.67;3.25;;;;;;;;;;4995717;28;20203;-63
2023/08/25 09:42:59;;;;;;;5.40;3.15;;;;;;;;;;4996675;28;20199;-63
2023/08/25 09:45:30;;;;;;;4.18;3.42;;;;;;;;;;4997101;28;20298;-63
2023/08/25 09:48:06;;;;;;;3.63;3.33;;;;;;;;;;4995630;28;20206;-63
2023/08/25 09:50:39;;;;;;;3.63;3.17;;;;;;;;;;4990665;28;20203;-63
2023/08/25 09:53:07;;;;;;;3.67;3.38;;;;;;;;;;4976838;28;20239;-63
2023/08/25 09:55:35;;;;;;;3.55;3.10;;;;;;;;;;4977148;28;20214;-63
2023/08/25 09:58:05;;;;;;;3.50;3.00;;;;;;;;;;4976444;28;20222;-63
2023/08/25 10:00:32;;;;;;;3.88;3.47;;;;;;;;;;4976524;28;20306;-63
2023/08/25 10:03:01;;;;;;;3.38;3.05;;;;;;;;;;4976595;28;20222;-64
2023/08/25 10:05:29;;;;;;;3.75;3.45;;;;;;;;;;4976159;28;20362;-63
2023/08/25 10:07:57;;;;;;;3.38;3.17;;;;;;;;;;4976968;28;20297;-63
2023/08/25 10:10:25;;;;;;;4.15;3.15;;;;;;;;;;4984821;28;20237;-63
2023/08/25 10:12:53;;;;;;;3.50;3.20;;;;;;;;;;4996180;28;20334;-63
2023/08/25 10:15:22;;;;;;;3.17;2.97;;;;;;;;;;4996086;28;20205;-63
2023/08/25 10:17:50;;;;;;;3.47;3.17;;;;;;;;;;4996265;28;20296;-63
2023/08/25 10:20:18;;;;;;;3.13;2.92;;;;;;;;;;4995821;28;20294;-63
2023/08/25 10:22:49;;;;;;;3.65;3.05;;;;;;;;;;4995879;28;20203;-63
2023/08/25 10:25:17;;;;;;;4.30;3.30;;;;;;;;;;4995435;28;20203;-63
2023/08/25 10:27:45;;;;;;;3.78;3.22;;;;;;;;;;4995033;28;20214;-63
2023/08/25 10:30:13;;;;;;;4.07;3.28;;;;;;;;;;4995043;28;20210;-63
2023/08/25 10:32:50;;;;;;;3.90;2.90;;;;;;;;;;4994526;28;20234;-63
2023/08/25 10:35:17;;;;;;;3.55;2.70;;;;;;;;;;4994804;28;20231;-63
2023/08/25 10:37:53;;;;;;;3.58;2.90;;;;;;;;;;4994523;28;20207;-63
2023/08/25 10:40:21;;;;;;;3.17;2.97;;;;;;;;;;4995139;28;20495;-63
2023/08/25 10:42:49;;;;;;;3.90;2.97;;;;;;;;;;4996173;28;20211;-63
2023/08/25 10:45:17;;;;;;;3.22;3.03;;;;;;;;;;4996326;28;20948;-63
2023/08/25 10:47:45;;;;;;;3.50;3.20;;;;;;;;;;4996408;28;20207;-63
2023/08/25 10:50:15;;;;;;;3.35;3.10;;;;;;;;;;4995453;28;20218;-63
2023/08/25 10:52:43;;;;;;;3.80;3.25;;;;;;;;;;4995220;28;20321;-63
2023/08/25 10:55:24;;;;;;;4.05;3.10;;;;;;;;;;4994762;28;20214;-63
2023/08/25 10:57:52;;;;;;;3.30;3.00;;;;;;;;;;4994927;28;20214;-63
2023/08/25 11:00:27;;;;;;;10.02;3.42;;;;;;;;;;4995583;28;20202;-63
2023/08/25 11:02:55;;;;;;;3.30;3.00;;;;;;;;;;4996003;28;20229;-64
2023/08/25 11:05:55;;;;;;;4.60;3.58;;;;;;;;;;4994547;28;20209;-63
2023/08/25 11:08:28;;;;;;;3.65;3.35;;;;;;;;;;4995117;28;20206;-63
2023/08/25 11:11:12;;;;;;;4.13;3.72;;;;;;;;;;4996059;28;20227;-63
2023/08/25 11:13:40;;;;;;;3.50;3.00;;;;;;;;;;4994551;28;20237;-63
2023/08/25 11:16:09;;;;;;;3.85;3.33;;;;;;;;;;4995149;28;20209;-63
2023/08/25 11:18:36;;;;;;;4.30;3.42;;;;;;;;;;4996139;28;20198;-63
2023/08/25 11:21:04;;;;;;;3.70;3.30;;;;;;;;;;4994753;28;20207;-63
2023/08/25 11:23:42;;;;;;;3.50;3.20;;;;;;;;;;4994472;28;20290;-63
2023/08/25 11:26:10;;;;;;;3.60;3.30;;;;;;;;;;4993489;28;20321;-63
2023/08/25 11:28:38;;;;;;;3.40;3.10;;;;;;;;;;4994981;28;20669;-63
2023/08/25 11:31:05;;;;;;;4.15;3.47;;;;;;;;;;4995183;28;20217;-63
2023/08/25 11:33:33;;;;;;;5.20;3.47;;;;;;;;;;4993461;28;20226;-64
2023/08/25 11:36:02;;;;;;;3.60;3.30;;;;;;;;;;4994174;28;20207;-63
2023/08/25 11:38:31;;;;;;;3.60;3.30;;;;;;;;;;4995370;28;20619;-63
2023/08/25 11:41:00;;;;;;;4.20;3.20;;;;;;;;;;4994370;28;20202;-63
2023/08/25 11:43:32;;;;;;;3.58;3.03;;;;;;;;;;4995088;28;20305;-63
2023/08/25 11:45:59;;;;;;;4.50;3.30;;;;;;;;;;4995085;28;20306;-64
2023/08/25 11:48:27;;;;;;;3.47;2.92;;;;;;;;;;4994869;28;20217;-63
2023/08/25 11:50:55;;;;;;;3.38;3.05;;;;;;;;;;4994427;28;20766;-63
2023/08/25 11:53:22;;;;;;;3.58;3.28;;;;;;;;;;4994541;28;20315;-64
2023/08/25 11:56:01;;;;;;;5.25;3.25;;;;;;;;;;4994795;28;20295;-64
2023/08/25 11:58:33;;;;;;;3.83;3.42;;;;;;;;;;4993624;28;20217;-63
2023/08/25 12:01:01;;;;;;;3.53;3.15;;;;;;;;;;4994051;28;20214;-63
2023/08/25 12:03:29;;;;;;;3.75;3.10;;;;;;;;;;4994676;28;20214;-63
2023/08/25 12:05:56;;;;;;;4.22;3.78;;;;;;;;;;4994242;28;20207;-63
2023/08/25 12:08:25;;;;;;;3.70;3.40;;;;;;;;;;4994473;28;20205;-63
2023/08/25 12:10:56;;;;;;;3.58;3.28;;;;;;;;;;4993497;28;20250;-63
2023/08/25 12:13:29;;;;;;;5.07;3.58;;;;;;;;;;4994000;28;20260;-63
2023/08/25 12:15:57;;;;;;;3.72;3.42;;;;;;;;;;4994597;28;20238;-63
2023/08/25 12:18:24;;;;;;;4.30;2.97;;;;;;;;;;4993854;28;20754;-63
2023/08/25 12:20:52;;;;;;;4.72;3.53;;;;;;;;;;4993982;28;20209;-63
2023/08/25 12:23:19;;;;;;;3.70;3.40;;;;;;;;;;4994300;28;20213;-63
2023/08/25 12:25:47;;;;;;;3.53;3.25;;;;;;;;;;4994700;28;20207;-63
2023/08/25 12:28:16;;;;;;;4.60;3.38;;;;;;;;;;4994911;28;20203;-63
2023/08/25 12:30:44;;;;;;;3.47;3.17;;;;;;;;;;4995050;28;20501;-63
2023/08/25 12:33:14;;;;;;;3.70;3.40;;;;;;;;;;4995475;28;20511;-63
2023/08/25 12:35:41;;;;;;;4.60;3.50;;;;;;;;;;4997587;28;20215;-63
2023/08/25 12:38:09;;;;;;;4.32;3.00;;;;;;;;;;4997646;28;20301;-63
2023/08/25 12:40:37;;;;;;;4.13;3.25;;;;;;;;;;4997406;28;20222;-63
2023/08/25 12:43:05;;;;;;;4.00;3.20;;;;;;;;;;4998199;28;20211;-63
2023/08/25 12:45:32;;;;;;;4.07;3.00;;;;;;;;;;4997381;28;20212;-63
2023/08/25 12:48:02;;;;;;;3.53;3.00;;;;;;;;;;4996811;28;20655;-63
2023/08/25 12:50:30;;;;;;;4.13;3.42;;;;;;;;;;4996248;28;20207;-63
2023/08/25 12:52:57;;;;;;;3.95;3.30;;;;;;;;;;4997056;28;20203;-63
2023/08/25 12:55:25;;;;;;;3.40;3.08;;;;;;;;;;4997585;28;20569;-64
2023/08/25 12:57:53;;;;;;;3.65;2.90;;;;;;;;;;4997750;28;20214;-63
2023/08/25 13:00:20;;;;;;;3.03;2.83;;;;;;;;;;4997229;28;20203;-63
2023/08/25 13:02:48;;;;;;;3.20;2.85;;;;;;;;;;4996791;28;20314;-63
2023/08/25 13:05:17;;;;;;;3.28;3.00;;;;;;;;;;4996926;28;20199;-63
2023/08/25 13:07:44;;;;;;;3.42;3.13;;;;;;;;;;4997277;28;20199;-63
2023/08/25 13:10:12;;;;;;;3.75;3.13;;;;;;;;;;4996290;28;20238;-64
2023/08/25 13:12:39;;;;;;;3.47;3.22;;;;;;;;;;4996998;28;20495;-63
2023/08/25 13:15:07;;;;;;;3.50;3.20;;;;;;;;;;4996397;28;20589;-63
2023/08/25 13:17:35;;;;;;;3.40;3.10;;;;;;;;;;4995819;28;20207;-63
2023/08/25 13:20:02;;;;;;;4.75;3.25;;;;;;;;;;4995975;28;20269;-63
2023/08/25 13:22:31;;;;;;;3.65;3.35;;;;;;;;;;4996147;28;20269;-63
2023/08/25 13:25:00;;;;;;;3.17;2.88;;;;;;;;;;4995433;28;20209;-63
2023/08/25 13:27:27;;;;;;;3.45;3.15;;;;;;;;;;4996856;28;20228;-63
2023/08/25 13:29:55;;;;;;;3.67;3.33;;;;;;;;;;4996759;28;20215;-63
2023/08/25 13:32:23;;;;;;;3.40;3.10;;;;;;;;;;4996866;28;20301;-63
2023/08/25 13:34:50;;;;;;;3.45;3.15;;;;;;;;;;4996782;28;20645;-63
2023/08/25 13:37:18;;;;;;;2.85;2.65;;;;;;;;;;4997953;28;20635;-63
2023/08/25 13:39:47;;;;;;;3.40;3.10;;;;;;;;;;4996658;28;20210;-63
2023/08/25 13:42:15;;;;;;;3.30;3.00;;;;;;;;;;4996666;28;20740;-63
2023/08/25 13:44:42;;;;;;;2.80;2.55;;;;;;;;;;4994899;28;20723;-63
2023/08/25 13:47:10;;;;;;;2.78;2.50;;;;;;;;;;4995873;28;20203;-63
2023/08/25 13:49:38;;;;;;;3.67;2.50;;;;;;;;;;4995856;28;20253;-63
2023/08/25 13:52:06;;;;;;;2.85;2.30;;;;;;;;;;4996421;28;20217;-63
2023/08/25 13:54:33;;;;;;;2.65;2.45;;;;;;;;;;4996126;28;20222;-63
2023/08/25 13:57:03;;;;;;;3.85;2.60;;;;;;;;;;4996065;28;20298;-63
2023/08/25 13:59:30;;;;;;;3.13;2.80;;;;;;;;;;4996053;28;20305;-63
2023/08/25 14:01:57;;;;;;;2.85;2.60;;;;;;;;;;4995331;28;20303;-63
2023/08/25 14:04:25;;;;;;;2.50;2.30;;;;;;;;;;4996304;28;20309;-63
2023/08/25 14:06:52;;;;;;;4.70;2.85;;;;;;;;;;4996066;28;20211;-63
2023/08/25 14:09:19;;;;;;;2.92;2.50;;;;;;;;;;4995866;28;20214;-63
2023/08/25 14:11:47;;;;;;;2.67;2.47;;;;;;;;;;4995407;28;20302;-63
2023/08/25 14:14:16;;;;;;;2.60;2.40;;;;;;;;;;4996487;28;20293;-63
2023/08/25 14:16:44;;;;;;;3.83;2.70;;;;;;;;;;4996551;28;20337;-63
2023/08/25 14:19:11;;;;;;;2.90;2.60;;;;;;;;;;4996720;28;20489;-63
2023/08/25 14:21:38;;;;;;;3.53;2.30;;;;;;;;;;4996856;28;20567;-63
2023/08/25 14:24:06;;;;;;;2.75;2.42;;;;;;;;;;4996164;28;20486;-63
2023/08/25 14:26:33;;;;;;;2.70;2.50;;;;;;;;;;4995689;28;20207;-63
2023/08/25 14:29:02;;;;;;;3.75;2.47;;;;;;;;;;4996392;28;20496;-63
2023/08/25 14:31:31;;;;;;;3.95;2.50;;;;;;;;;;4995388;28;20207;-63
2023/08/25 14:33:58;;;;;;;2.67;2.42;;;;;;;;;;4996387;28;20240;-63
2023/08/25 14:36:26;;;;;;;3.92;2.63;;;;;;;;;;4995197;28;20207;-63
2023/08/25 14:38:54;;;;;;;3.10;2.38;;;;;;;;;;4995550;28;20294;-63
2023/08/25 14:41:21;;;;;;;2.53;2.33;;;;;;;;;;4995508;28;20207;-63
2023/08/25 14:43:48;;;;;;;2.55;2.28;;;;;;;;;;4996414;28;20199;-63
2023/08/25 14:46:16;;;;;;;2.65;2.45;;;;;;;;;;4996133;28;20211;-63
2023/08/25 14:48:46;;;;;;;2.47;2.28;;;;;;;;;;4995254;28;20290;-63
2023/08/25 14:51:15;;;;;;;3.65;2.50;;;;;;;;;;4995468;28;20206;-63